createdAt,value
2018-03-14T00:00:18.730Z,97.60
2018-03-14T00:02:46.185Z,97.40
2018-03-14T00:05:13.664Z,97.40
2018-03-14T00:07:41.907Z,97.00
2018-03-14T00:10:09.389Z,97.00
2018-03-14T00:12:36.869Z,96.90
2018-03-14T00:15:05.086Z,97.00
2018-03-14T00:17:32.567Z,96.90
2018-03-14T00:20:00.036Z,97.30
2018-03-14T00:22:34.036Z,97.20
2018-03-14T00:25:01.509Z,97.30
2018-03-14T00:27:28.993Z,97.50
2018-03-14T00:29:56.453Z,97.50
2018-03-14T00:32:23.918Z,97.80
2018-03-14T00:34:51.386Z,98.10
2018-03-14T00:37:18.837Z,97.70
2018-03-14T00:39:46.291Z,97.60
2018-03-14T00:42:13.802Z,97.60
2018-03-14T00:44:41.290Z,97.40
2018-03-14T00:47:08.753Z,97.30
2018-03-14T00:49:36.226Z,97.30
2018-03-14T00:52:03.710Z,97.20
2018-03-14T00:54:31.185Z,97.10
2018-03-14T00:56:58.644Z,97.00
2018-03-14T00:59:26.120Z,96.80
2018-03-14T01:01:54.350Z,96.60
2018-03-14T01:04:21.801Z,96.60
2018-03-14T01:06:49.240Z,96.60
2018-03-14T01:09:16.722Z,96.50
2018-03-14T01:11:44.189Z,96.50
2018-03-14T01:14:11.667Z,96.50
2018-03-14T01:16:39.932Z,96.50
2018-03-14T01:19:07.384Z,96.50
2018-03-14T01:21:34.861Z,96.50
2018-03-14T01:24:02.366Z,96.50
2018-03-14T01:26:30.614Z,96.70
2018-03-14T01:28:58.075Z,96.30
2018-03-14T01:31:25.520Z,96.40
2018-03-14T01:33:53.780Z,96.20
2018-03-14T01:36:22.041Z,96.20
2018-03-14T01:38:49.486Z,96.20
2018-03-14T01:41:16.948Z,96.40
2018-03-14T01:43:44.419Z,96.30
2018-03-14T01:46:12.637Z,95.90
2018-03-14T01:48:40.632Z,95.80
2018-03-14T01:51:08.940Z,95.90
2018-03-14T01:53:36.402Z,95.90
2018-03-14T01:56:04.612Z,96.00
2018-03-14T01:58:32.996Z,96.00
2018-03-14T02:01:00.452Z,96.00
2018-03-14T02:03:27.935Z,96.10
2018-03-14T02:05:55.403Z,96.30
2018-03-14T02:08:22.886Z,96.30
2018-03-14T02:10:51.105Z,96.50
2018-03-14T02:13:18.570Z,96.40
2018-03-14T02:15:46.051Z,96.40
2018-03-14T02:18:13.564Z,96.30
2018-03-14T02:20:41.038Z,96.40
2018-03-14T02:23:08.501Z,96.60
2018-03-14T02:25:35.982Z,96.50
2018-03-14T02:28:03.461Z,96.40
2018-03-14T02:30:31.687Z,96.70
2018-03-14T02:32:59.160Z,97.00
2018-03-14T02:35:27.146Z,96.60
2018-03-14T02:37:54.597Z,96.90
2018-03-14T02:40:22.069Z,96.60
2018-03-14T02:42:50.318Z,96.50
2018-03-14T02:45:17.773Z,96.50
2018-03-14T02:47:45.262Z,96.50
2018-03-14T02:50:13.497Z,96.10
2018-03-14T02:52:40.944Z,95.80
2018-03-14T02:55:08.396Z,95.80
2018-03-14T02:57:35.942Z,95.90
2018-03-14T03:00:03.399Z,95.90
2018-03-14T03:02:30.842Z,96.10
2018-03-14T03:04:58.310Z,96.10
2018-03-14T03:07:25.754Z,95.90
2018-03-14T03:09:53.246Z,95.90
2018-03-14T03:12:20.716Z,96.00
2018-03-14T03:14:48.172Z,96.50
2018-03-14T03:17:16.006Z,96.30
2018-03-14T03:19:43.464Z,96.50
2018-03-14T03:22:10.945Z,96.30
2018-03-14T03:24:38.410Z,96.40
2018-03-14T03:27:05.859Z,96.50
2018-03-14T03:29:34.107Z,95.80
2018-03-14T03:32:01.570Z,95.80
2018-03-14T03:34:29.042Z,95.50
2018-03-14T03:36:56.492Z,95.60
2018-03-14T03:39:23.958Z,95.70
2018-03-14T03:41:51.436Z,95.90
2018-03-14T03:44:18.894Z,95.90
2018-03-14T03:46:46.340Z,96.00
2018-03-14T03:49:13.783Z,95.50
2018-03-14T03:51:41.250Z,95.60
2018-03-14T03:54:08.720Z,95.70
2018-03-14T03:56:36.156Z,95.80
2018-03-14T03:59:03.646Z,95.80
2018-03-14T04:01:31.182Z,95.70
2018-03-14T04:03:58.639Z,95.70
2018-03-14T04:06:26.133Z,96.10
2018-03-14T04:08:54.344Z,95.60
2018-03-14T04:11:21.810Z,95.60
2018-03-14T04:13:49.302Z,95.30
2018-03-14T04:16:16.756Z,95.40
2018-03-14T04:18:44.217Z,95.60
2018-03-14T04:21:11.698Z,95.60
2018-03-14T04:23:39.132Z,95.60
2018-03-14T04:26:07.373Z,95.50
2018-03-14T04:28:34.853Z,95.50
2018-03-14T04:31:02.316Z,95.60
2018-03-14T04:33:29.790Z,95.50
2018-03-14T04:35:58.021Z,95.50
2018-03-14T04:38:25.478Z,95.50
2018-03-14T04:40:52.956Z,95.40
2018-03-14T04:43:20.400Z,95.20
2018-03-14T04:45:47.864Z,95.40
2018-03-14T04:48:15.341Z,95.80
2018-03-14T04:50:43.552Z,95.90
2018-03-14T04:53:11.020Z,95.90
2018-03-14T04:55:38.497Z,96.40
2018-03-14T04:58:05.984Z,96.90
2018-03-14T05:00:34.226Z,96.90
2018-03-14T05:03:01.702Z,96.90
2018-03-14T05:05:29.150Z,97.00
2018-03-14T05:07:56.597Z,97.00
2018-03-14T05:10:24.058Z,97.10
2018-03-14T05:12:51.522Z,97.40
2018-03-14T05:15:19.038Z,97.30
2018-03-14T05:17:46.490Z,97.30
2018-03-14T05:20:13.941Z,97.30
2018-03-14T05:22:41.397Z,97.30
2018-03-14T05:25:08.887Z,97.30
2018-03-14T05:27:36.332Z,97.00
2018-03-14T05:30:03.801Z,97.20
2018-03-14T05:32:31.261Z,97.20
2018-03-14T05:34:58.730Z,97.10
2018-03-14T05:37:26.192Z,97.10
2018-03-14T05:39:53.641Z,97.00
2018-03-14T05:42:21.116Z,97.10
2018-03-14T05:44:48.552Z,96.80
2018-03-14T05:47:16.043Z,96.70
2018-03-14T05:49:44.300Z,97.00
2018-03-14T05:52:11.778Z,96.90
2018-03-14T05:54:40.010Z,96.90
2018-03-14T05:57:07.481Z,96.80
2018-03-14T05:59:34.952Z,96.90
2018-03-14T06:02:02.445Z,96.70
2018-03-14T06:04:29.886Z,96.70
2018-03-14T06:06:58.113Z,96.40
2018-03-14T06:09:25.598Z,96.30
2018-03-14T06:11:53.064Z,96.30
2018-03-14T06:14:21.288Z,96.90
2018-03-14T06:16:48.752Z,96.80
2018-03-14T06:19:16.217Z,96.80
2018-03-14T06:21:43.678Z,97.00
2018-03-14T06:24:11.125Z,96.90
2018-03-14T06:26:38.669Z,96.70
2018-03-14T06:29:07.001Z,96.40
2018-03-14T06:31:35.203Z,96.30
2018-03-14T06:34:02.676Z,96.30
2018-03-14T06:36:30.130Z,96.40
2018-03-14T06:38:57.623Z,96.30
2018-03-14T06:41:25.068Z,96.00
2018-03-14T06:43:52.518Z,96.00
2018-03-14T06:46:20.004Z,95.90
2018-03-14T06:48:47.465Z,95.90
2018-03-14T06:51:15.732Z,95.40
2018-03-14T06:53:43.992Z,95.60
2018-03-14T06:56:11.461Z,95.60
2018-03-14T06:58:54.389Z,95.70
2018-03-14T07:01:31.728Z,95.90
2018-03-14T07:04:11.179Z,95.90
2018-03-14T07:06:38.628Z,95.90
2018-03-14T07:09:06.077Z,96.20
2018-03-14T07:11:33.564Z,96.40
2018-03-14T07:14:01.042Z,96.50
2018-03-14T07:16:28.508Z,96.40
2018-03-14T07:18:56.760Z,96.50
2018-03-14T07:21:24.201Z,96.40
2018-03-14T07:23:51.652Z,96.60
2018-03-14T07:26:19.135Z,96.40
2018-03-14T07:28:46.581Z,96.60
2018-03-14T07:31:14.065Z,96.80
2018-03-14T07:33:42.316Z,96.30
2018-03-14T07:36:09.771Z,96.20
2018-03-14T07:38:37.277Z,96.20
2018-03-14T07:41:04.721Z,95.00
2018-03-14T07:43:32.197Z,94.70
2018-03-14T07:45:59.650Z,94.60
2018-03-14T07:48:27.128Z,93.40
2018-03-14T07:50:54.607Z,93.90
2018-03-14T07:53:22.496Z,92.20
2018-03-14T07:55:50.745Z,90.90
2018-03-14T07:58:18.220Z,90.50
2018-03-14T08:00:45.677Z,91.20
2018-03-14T08:03:13.125Z,90.50
2018-03-14T08:05:40.593Z,90.90
2018-03-14T08:08:08.064Z,90.00
2018-03-14T08:10:35.505Z,90.40
2018-03-14T08:13:02.953Z,89.50
2018-03-14T08:15:30.433Z,90.20
2018-03-14T08:17:58.661Z,90.60
2018-03-14T08:20:26.137Z,90.50
2018-03-14T08:22:53.605Z,88.60
2018-03-14T08:25:21.052Z,85.40
2018-03-14T08:27:48.532Z,85.00
2018-03-14T08:30:15.987Z,83.90
2018-03-14T08:32:44.215Z,79.90
2018-03-14T08:35:11.692Z,79.80
2018-03-14T08:37:39.133Z,76.40
2018-03-14T08:40:08.072Z,72.60
2018-03-14T08:42:36.317Z,70.60
2018-03-14T08:45:03.784Z,70.50
2018-03-14T08:47:31.256Z,69.60
2018-03-14T08:49:59.499Z,66.40
2018-03-14T08:52:26.984Z,66.40
2018-03-14T08:54:55.233Z,62.00
2018-03-14T08:57:22.881Z,61.80
2018-03-14T08:59:50.338Z,61.50
2018-03-14T09:02:17.793Z,61.60
2018-03-14T09:04:45.285Z,60.00
2018-03-14T09:07:12.766Z,57.70
2018-03-14T09:09:40.989Z,56.40
2018-03-14T09:12:08.458Z,56.40
2018-03-14T09:14:35.910Z,54.80
2018-03-14T09:17:03.365Z,54.60
2018-03-14T09:19:30.832Z,54.40
2018-03-14T09:21:58.300Z,53.90
2018-03-14T09:24:25.782Z,55.20
2018-03-14T09:26:54.012Z,52.10
2018-03-14T09:29:21.466Z,52.10
2018-03-14T09:31:48.999Z,53.80
2018-03-14T09:34:17.209Z,56.40
2018-03-14T09:36:44.685Z,56.40
2018-03-14T09:39:12.929Z,61.00
2018-03-14T09:41:40.401Z,61.00
2018-03-14T09:44:07.870Z,62.70
2018-03-14T09:46:36.121Z,65.30
2018-03-14T09:49:03.592Z,65.40
2018-03-14T09:51:31.191Z,64.70
2018-03-14T09:53:58.692Z,66.40
2018-03-14T09:56:26.164Z,66.50
2018-03-14T09:58:53.848Z,67.20
2018-03-14T10:01:22.064Z,62.40
2018-03-14T10:03:49.556Z,62.20
2018-03-14T10:06:16.977Z,58.20
2018-03-14T10:08:44.454Z,56.20
2018-03-14T10:11:11.939Z,52.40
2018-03-14T10:13:39.433Z,49.70
2018-03-14T10:16:06.939Z,48.90
2018-03-14T10:18:35.212Z,47.80
2018-03-14T10:21:02.722Z,47.80
2018-03-14T10:23:30.208Z,48.90
2018-03-14T10:25:57.759Z,45.90
2018-03-14T10:28:25.253Z,45.60
2018-03-14T10:30:53.520Z,51.20
2018-03-14T10:33:21.061Z,51.20
2018-03-14T10:35:49.248Z,53.80
2018-03-14T10:38:16.764Z,53.70
2018-03-14T10:40:44.989Z,49.60
2018-03-14T10:43:12.439Z,49.50
2018-03-14T10:45:39.903Z,47.40
2018-03-14T10:48:07.377Z,50.50
2018-03-14T10:50:35.628Z,45.40
2018-03-14T10:53:03.076Z,45.40
2018-03-14T10:55:30.582Z,43.10
2018-03-14T10:57:58.820Z,41.30
2018-03-14T11:00:27.233Z,41.20
2018-03-14T11:03:01.228Z,47.90
2018-03-14T11:05:29.461Z,44.80
2018-03-14T11:07:56.945Z,44.90
2018-03-14T11:10:24.407Z,41.20
2018-03-14T11:12:51.877Z,45.00
2018-03-14T11:15:20.129Z,45.50
2018-03-14T11:17:47.607Z,45.50
2018-03-14T11:20:15.863Z,48.90
2018-03-14T11:22:43.339Z,48.90
2018-03-14T11:25:11.549Z,44.10
2018-03-14T11:27:39.038Z,44.10
2018-03-14T11:30:06.515Z,44.60
2018-03-14T11:32:33.963Z,40.40
2018-03-14T11:35:01.444Z,42.40
2018-03-14T11:37:29.685Z,38.60
2018-03-14T11:39:57.158Z,38.50
2018-03-14T11:42:24.659Z,43.10
2018-03-14T11:44:52.881Z,48.40
2018-03-14T11:47:20.333Z,48.30
2018-03-14T11:49:47.828Z,46.20
2018-03-14T11:52:16.064Z,41.10
2018-03-14T11:54:43.542Z,41.20
2018-03-14T11:57:11.017Z,40.80
2018-03-14T11:59:39.229Z,40.90
2018-03-14T12:02:06.686Z,40.80
2018-03-14T12:04:34.164Z,43.20
2018-03-14T12:07:01.642Z,40.80
2018-03-14T12:09:29.133Z,38.90
2018-03-14T12:11:57.381Z,37.30
2018-03-14T12:14:25.606Z,38.40
2018-03-14T12:16:53.069Z,38.30
2018-03-14T12:19:20.524Z,36.40
2018-03-14T12:21:47.965Z,37.10
2018-03-14T12:24:15.456Z,35.90
2018-03-14T12:26:42.898Z,36.70
2018-03-14T12:29:10.352Z,35.70
2018-03-14T12:31:37.840Z,36.80
2018-03-14T12:34:05.321Z,39.40
2018-03-14T12:36:33.547Z,40.50
2018-03-14T12:39:01.049Z,40.50
2018-03-14T12:41:29.270Z,43.50
2018-03-14T12:43:56.740Z,43.30
2018-03-14T12:46:24.220Z,43.80
2018-03-14T12:48:51.679Z,44.80
2018-03-14T12:51:19.132Z,42.10
2018-03-14T12:53:46.606Z,44.30
2018-03-14T12:56:14.905Z,39.80
2018-03-14T12:58:42.368Z,39.60
2018-03-14T13:01:09.835Z,37.70
2018-03-14T13:03:37.327Z,40.20
2018-03-14T13:06:04.765Z,39.80
2018-03-14T13:08:32.229Z,39.10
2018-03-14T13:10:59.700Z,38.90
2018-03-14T13:13:27.161Z,39.60
2018-03-14T13:18:29.219Z,41.40
2018-03-14T13:20:56.749Z,41.30
2018-03-14T13:23:24.287Z,40.30
2018-03-14T13:25:51.767Z,40.20
2018-03-14T13:28:19.228Z,39.40
2018-03-14T13:30:46.743Z,40.10
2018-03-14T13:33:14.952Z,40.30
2018-03-14T13:35:43.335Z,40.30
2018-03-14T13:38:10.834Z,39.70
2018-03-14T13:40:38.314Z,39.80
2018-03-14T13:43:06.610Z,41.50
2018-03-14T13:45:34.093Z,41.40
2018-03-14T13:48:01.618Z,42.10
2018-03-14T13:50:29.143Z,40.50
2018-03-14T13:52:56.592Z,42.00
2018-03-14T13:55:24.099Z,41.60
2018-03-14T13:57:51.668Z,40.80
2018-03-14T14:00:20.075Z,40.20
2018-03-14T14:02:47.584Z,41.00
2018-03-14T14:05:15.820Z,41.30
2018-03-14T14:07:43.367Z,41.20
2018-03-14T14:10:10.793Z,41.40
2018-03-14T14:12:38.298Z,41.80
2018-03-14T14:15:06.625Z,42.70
2018-03-14T14:17:34.154Z,42.70
2018-03-14T14:20:01.671Z,43.50
2018-03-14T14:22:29.128Z,39.40
2018-03-14T14:24:56.590Z,40.90
2018-03-14T14:27:24.842Z,42.50
2018-03-14T14:29:52.329Z,42.50
2018-03-14T14:32:19.779Z,42.30
2018-03-14T14:34:47.220Z,41.60
2018-03-14T14:37:14.674Z,41.70
2018-03-14T14:39:42.151Z,43.30
2018-03-14T14:42:09.675Z,43.30
2018-03-14T14:44:37.198Z,45.40
2018-03-14T14:47:04.657Z,45.80
2018-03-14T14:49:32.880Z,47.20
2018-03-14T14:52:00.352Z,47.10
2018-03-14T14:54:27.831Z,45.30
2018-03-14T14:56:55.308Z,45.10
2018-03-14T14:59:23.517Z,46.90
2018-03-14T15:01:50.970Z,46.90
2018-03-14T15:04:18.428Z,46.50
2018-03-14T15:06:45.880Z,47.40
2018-03-14T15:09:13.345Z,47.10
2018-03-14T15:11:40.913Z,47.30
2018-03-14T15:14:09.338Z,48.50
2018-03-14T15:16:36.818Z,48.60
2018-03-14T15:19:04.325Z,48.80
2018-03-14T15:21:32.027Z,49.10
2018-03-14T15:23:59.476Z,49.70
2018-03-14T15:26:27.002Z,49.30
2018-03-14T15:28:54.470Z,49.70
2018-03-14T15:31:21.944Z,50.20
2018-03-14T15:33:50.181Z,50.80
2018-03-14T15:36:17.678Z,50.70
2018-03-14T15:38:45.233Z,51.00
2018-03-14T15:41:13.460Z,52.70
2018-03-14T15:43:40.962Z,52.70
2018-03-14T15:46:08.478Z,52.60
2018-03-14T15:48:35.964Z,52.80
2018-03-14T15:51:03.457Z,53.20
2018-03-14T15:53:31.680Z,53.70
2018-03-14T15:55:59.151Z,53.70
2018-03-14T15:58:26.626Z,53.30
2018-03-14T16:00:54.083Z,53.60
2018-03-14T16:03:21.537Z,53.20
2018-03-14T16:05:48.997Z,54.30
2018-03-14T16:08:16.478Z,54.60
2018-03-14T16:10:43.938Z,54.30
2018-03-14T16:13:11.431Z,54.60
2018-03-14T16:15:38.893Z,53.40
2018-03-14T16:18:06.370Z,54.00
2018-03-14T16:20:34.772Z,54.30
2018-03-14T16:23:03.121Z,55.00
2018-03-14T16:25:30.553Z,55.00
2018-03-14T16:27:58.041Z,54.50
2018-03-14T16:30:25.520Z,54.80
2018-03-14T16:32:54.317Z,55.20
2018-03-14T16:35:21.791Z,55.20
2018-03-14T16:37:49.335Z,55.60
2018-03-14T16:40:16.816Z,55.70
2018-03-14T16:42:44.480Z,55.80
2018-03-14T16:45:11.973Z,55.70
2018-03-14T16:47:39.698Z,55.80
2018-03-14T16:50:07.236Z,56.50
2018-03-14T16:52:34.735Z,56.80
2018-03-14T16:55:05.364Z,57.00
2018-03-14T16:57:32.857Z,56.90
2018-03-14T17:00:04.097Z,57.70
2018-03-14T17:02:32.341Z,57.90
2018-03-14T17:04:59.882Z,57.30
2018-03-14T17:07:27.413Z,57.70
2018-03-14T17:09:54.880Z,57.80
2018-03-14T17:12:22.426Z,58.10
2018-03-14T17:14:49.943Z,57.70
2018-03-14T17:17:19.098Z,58.40
2018-03-14T17:19:46.622Z,58.30
2018-03-14T17:22:14.863Z,58.90
2018-03-14T17:24:42.472Z,58.90
2018-03-14T17:27:10.733Z,59.30
2018-03-14T17:29:38.299Z,59.20
2018-03-14T17:32:06.586Z,59.60
2018-03-14T17:34:34.802Z,59.60
2018-03-14T17:37:02.318Z,59.70
2018-03-14T17:39:29.815Z,59.90
2018-03-14T17:41:57.322Z,60.40
2018-03-14T17:44:25.572Z,61.10
2018-03-14T17:46:53.094Z,61.00
2018-03-14T17:49:20.600Z,61.20
2018-03-14T17:51:48.886Z,62.20
2018-03-14T17:54:19.337Z,62.20
2018-03-14T17:56:46.844Z,62.40
2018-03-14T17:59:15.130Z,63.10
2018-03-14T18:01:43.606Z,63.10
2018-03-14T18:04:11.112Z,63.50
2018-03-14T18:06:38.601Z,64.00
2018-03-14T18:09:06.112Z,64.70
2018-03-14T18:11:33.618Z,64.80
2018-03-14T18:14:01.105Z,64.80
2018-03-14T18:16:30.076Z,65.60
2018-03-14T18:18:57.557Z,65.60
2018-03-14T18:21:25.856Z,65.80
2018-03-14T18:23:54.128Z,66.10
2018-03-14T18:26:21.627Z,66.00
2018-03-14T18:28:50.692Z,66.40
2018-03-14T18:31:19.715Z,67.40
2018-03-14T18:33:48.891Z,67.40
2018-03-14T18:36:16.434Z,67.60
2018-03-14T18:38:43.981Z,67.90
2018-03-14T18:41:12.088Z,68.20
2018-03-14T18:43:39.608Z,68.60
2018-03-14T18:46:07.172Z,68.80
2018-03-14T18:48:35.434Z,69.30
2018-03-14T18:51:04.467Z,69.60
2018-03-14T18:53:31.992Z,69.50
2018-03-14T18:56:00.268Z,69.70
2018-03-14T18:58:28.535Z,70.20
2018-03-14T19:00:56.836Z,70.60
2018-03-14T19:03:24.355Z,70.50
2018-03-14T19:05:51.859Z,70.70
2018-03-14T19:08:19.713Z,71.20
2018-03-14T19:10:47.597Z,71.20
2018-03-14T19:13:15.115Z,72.60
2018-03-14T19:15:42.604Z,73.00
2018-03-14T19:18:11.090Z,72.60
2018-03-14T19:20:38.571Z,72.90
2018-03-14T19:23:06.491Z,73.20
2018-03-14T19:25:34.770Z,73.20
2018-03-14T19:28:03.041Z,73.70
2018-03-14T19:30:31.410Z,73.70
2018-03-14T19:33:01.564Z,73.70
2018-03-14T19:35:30.256Z,73.70
2018-03-14T19:38:00.492Z,74.30
2018-03-14T19:40:28.142Z,74.10
2018-03-14T19:42:55.688Z,74.30
2018-03-14T19:45:23.964Z,74.50
2018-03-14T19:47:52.338Z,74.70
2018-03-14T19:50:20.447Z,75.00
2018-03-14T19:52:49.733Z,75.20
2018-03-14T19:55:17.484Z,74.90
2018-03-14T19:57:47.456Z,75.60
2018-03-14T20:00:17.240Z,76.10
2018-03-14T20:02:45.840Z,76.10
2018-03-14T20:05:14.372Z,76.50
2018-03-14T20:07:42.641Z,77.40
2018-03-14T20:10:10.955Z,77.10
2018-03-14T20:12:40.007Z,77.10
2018-03-14T20:15:09.009Z,77.20
2018-03-14T20:17:36.490Z,77.60
2018-03-14T20:20:05.291Z,78.00
2018-03-14T20:22:36.029Z,78.20
2018-03-14T20:25:03.528Z,78.90
2018-03-14T20:27:31.216Z,78.80
2018-03-14T20:29:59.540Z,79.00
2018-03-14T20:32:28.481Z,79.60
2018-03-14T20:34:56.013Z,80.20
2018-03-14T20:37:25.001Z,79.30
2018-03-14T20:39:54.615Z,80.10
2018-03-14T20:42:23.911Z,80.10
2018-03-14T20:44:52.195Z,80.20
2018-03-14T20:47:21.751Z,80.10
2018-03-14T20:49:50.143Z,80.20
2018-03-14T20:52:17.920Z,80.60
2018-03-14T20:54:47.182Z,80.60
2018-03-14T20:57:15.687Z,80.60
2018-03-14T20:59:45.040Z,80.80
2018-03-14T21:02:12.813Z,80.70
2018-03-14T21:04:41.654Z,80.60
2018-03-14T21:07:10.053Z,80.80
2018-03-14T21:09:37.594Z,80.80
2018-03-14T21:12:11.350Z,80.70
2018-03-14T21:14:40.679Z,81.20
2018-03-14T21:17:11.673Z,81.00
2018-03-14T21:19:39.395Z,80.80
2018-03-14T21:22:08.396Z,81.20
2018-03-14T21:24:37.282Z,81.10
2018-03-14T21:27:05.892Z,81.00
2018-03-14T21:29:33.453Z,81.20
2018-03-14T21:32:01.324Z,80.90
2018-03-14T21:34:34.937Z,80.80
2018-03-14T21:37:02.460Z,81.10
2018-03-14T21:39:30.737Z,81.60
2018-03-14T21:41:59.031Z,81.00
2018-03-14T21:44:27.381Z,81.00
2018-03-14T21:46:55.648Z,81.20
2018-03-14T21:49:25.681Z,81.40
2018-03-14T21:51:54.084Z,81.40
2018-03-14T21:54:22.540Z,81.10
2018-03-14T21:56:51.192Z,81.10
2018-03-14T21:59:19.631Z,81.10
2018-03-14T22:01:47.505Z,81.10
2018-03-14T22:04:15.363Z,81.20
2018-03-14T22:06:43.498Z,81.30
2018-03-14T22:09:11.055Z,81.30
2018-03-14T22:11:38.570Z,81.30
2018-03-14T22:14:06.916Z,81.30
2018-03-14T22:16:34.420Z,81.30
2018-03-14T22:19:01.967Z,81.40
2018-03-14T22:21:31.192Z,81.20
2018-03-14T22:23:58.699Z,81.50
2018-03-14T22:26:26.213Z,81.90
2018-03-14T22:28:53.730Z,81.90
2018-03-14T22:31:21.222Z,82.60
2018-03-14T22:33:48.707Z,82.00
2018-03-14T22:36:17.009Z,81.90
2018-03-14T22:38:44.944Z,81.90
2018-03-14T22:41:13.215Z,82.60
2018-03-14T22:43:42.023Z,83.40
2018-03-14T22:46:09.530Z,82.50
2018-03-14T22:48:37.814Z,83.40
2018-03-14T22:51:05.316Z,84.20
2018-03-14T22:53:32.786Z,83.60
2018-03-14T22:56:00.264Z,83.80
2018-03-14T22:58:27.758Z,83.90
2018-03-14T23:00:55.254Z,84.20
2018-03-14T23:03:22.749Z,84.20
2018-03-14T23:05:50.226Z,84.60
2018-03-14T23:08:17.701Z,84.50
2018-03-14T23:10:45.923Z,84.80
2018-03-14T23:13:13.365Z,84.70
2018-03-14T23:15:40.822Z,85.00
2018-03-14T23:18:08.277Z,84.70
2018-03-14T23:20:35.726Z,85.70
2018-03-14T23:23:03.190Z,84.80
2018-03-14T23:25:30.661Z,84.70
2018-03-14T23:27:58.105Z,85.10
2018-03-14T23:30:25.560Z,84.90
2018-03-14T23:32:53.017Z,85.00
2018-03-14T23:35:20.498Z,85.30
2018-03-14T23:37:47.969Z,85.30
2018-03-14T23:40:15.409Z,85.40
2018-03-14T23:42:43.437Z,85.30
2018-03-14T23:45:10.907Z,85.60
2018-03-14T23:47:38.397Z,85.90
2018-03-14T23:50:05.832Z,86.10
2018-03-14T23:52:33.281Z,86.20
2018-03-14T23:55:00.761Z,86.00
2018-03-14T23:57:29.002Z,86.30
2018-03-14T23:59:56.476Z,86.30
